Terminal Aerodrome Forecast
Issued by NWS Huntsville, AL

Current Version | Previous Version | Text Only | Print | Product List | Glossary On
Versions: 1 2 3 4 5 6 7 8 9 10 11 12 13 14 15 16 17 18 19 20 21 22 23 24 25 26 27 28 29 30 31 32 33 34 35 36 37 38 39 40 41
000
FTUS44 KHUN 190816 AAA
TAFHSV
TAF AMD
KHSV 190816Z 1908/2006 12006KT 4SM SHRA BKN015
     FM190900 15006KT 5SM -SHRA BR OVC020
     FM191000 16007KT 4SM SHRA BR OVC012
     FM191600 22012KT 5SM -SHRA BR OVC030
     FM192000 23015G25KT P6SM OVC040
      TEMPO 1921/2001 5SM -TSRA BR BKN025CB
     FM200100 17010KT P6SM BKN050=

USA.gov is the U.S. government's official web portal to all federal, state and local government web resources and services.